sensor_id;sensor_type;location;lat;lon;timestamp;temperature;humidity
19483;DHT22;9882;51.166;6.992;2024-03-23T00:54:14;8.30;99.90
19483;DHT22;9882;51.166;6.992;2024-03-23T00:56:42;8.00;99.90
19483;DHT22;9882;51.166;6.992;2024-03-23T00:59:10;8.80;99.90
19483;DHT22;9882;51.166;6.992;2024-03-23T01:01:38;8.80;99.90
19483;DHT22;9882;51.166;6.992;2024-03-23T01:04:06;8.50;99.90
19483;DHT22;9882;51.166;6.992;2024-03-23T01:06:35;8.00;99.90
19483;DHT22;9882;51.166;6.992;2024-03-23T01:09:02;8.60;99.90
19483;DHT22;9882;51.166;6.992;2024-03-23T01:11:30;8.50;99.90
19483;DHT22;9882;51.166;6.992;2024-03-23T01:13:57;8.90;99.90
19483;DHT22;9882;51.166;6.992;2024-03-23T01:16:25;9.00;99.90
19483;DHT22;9882;51.166;6.992;2024-03-23T01:18:52;9.20;99.90
19483;DHT22;9882;51.166;6.992;2024-03-23T01:21:22;9.40;99.90
19483;DHT22;9882;51.166;6.992;2024-03-23T01:23:49;8.70;99.90
19483;DHT22;9882;51.166;6.992;2024-03-23T01:26:17;8.80;99.90
19483;DHT22;9882;51.166;6.992;2024-03-23T01:28:45;9.40;99.90
19483;DHT22;9882;51.166;6.992;2024-03-23T01:31:13;9.30;99.90
19483;DHT22;9882;51.166;6.992;2024-03-23T01:33:40;8.70;99.90
19483;DHT22;9882;51.166;6.992;2024-03-23T01:36:08;7.90;99.90
19483;DHT22;9882;51.166;6.992;2024-03-23T01:38:37;8.40;99.90
19483;DHT22;9882;51.166;6.992;2024-03-23T01:41:05;9.00;99.90
19483;DHT22;9882;51.166;6.992;2024-03-23T01:43:32;9.40;99.90
19483;DHT22;9882;51.166;6.992;2024-03-23T01:46:00;9.50;99.90
19483;DHT22;9882;51.166;6.992;2024-03-23T01:48:27;9.70;99.90
19483;DHT22;9882;51.166;6.992;2024-03-23T01:50:55;9.70;99.90
19483;DHT22;9882;51.166;6.992;2024-03-23T01:53:22;9.30;99.90
19483;DHT22;9882;51.166;6.992;2024-03-23T01:55:52;9.40;99.90
19483;DHT22;9882;51.166;6.992;2024-03-23T01:58:19;9.30;99.90
19483;DHT22;9882;51.166;6.992;2024-03-23T02:00:47;8.70;99.90
19483;DHT22;9882;51.166;6.992;2024-03-23T02:03:22;9.20;99.90
19483;DHT22;9882;51.166;6.992;2024-03-23T02:05:51;8.80;99.90
19483;DHT22;9882;51.166;6.992;2024-03-23T02:08:20;8.60;99.90
19483;DHT22;9882;51.166;6.992;2024-03-23T02:10:49;7.30;99.90
19483;DHT22;9882;51.166;6.992;2024-03-23T02:13:18;7.10;99.90
19483;DHT22;9882;51.166;6.992;2024-03-23T02:15:46;7.90;99.90
19483;DHT22;9882;51.166;6.992;2024-03-23T02:18:13;7.20;99.90
19483;DHT22;9882;51.166;6.992;2024-03-23T02:20:41;7.50;99.90
19483;DHT22;9882;51.166;6.992;2024-03-23T02:23:14;8.00;99.90
19483;DHT22;9882;51.166;6.992;2024-03-23T02:25:43;8.00;99.90
19483;DHT22;9882;51.166;6.992;2024-03-23T02:28:10;8.20;99.90
19483;DHT22;9882;51.166;6.992;2024-03-23T02:30:38;8.40;99.90
19483;DHT22;9882;51.166;6.992;2024-03-23T02:33:05;8.30;99.90
19483;DHT22;9882;51.166;6.992;2024-03-23T02:35:34;8.30;99.90
19483;DHT22;9882;51.166;6.992;2024-03-23T02:38:01;7.90;99.90
19483;DHT22;9882;51.166;6.992;2024-03-23T02:40:30;7.70;99.90
19483;DHT22;9882;51.166;6.992;2024-03-23T02:42:57;7.40;99.90
19483;DHT22;9882;51.166;6.992;2024-03-23T02:45:25;7.60;99.90
19483;DHT22;9882;51.166;6.992;2024-03-23T02:47:53;8.20;99.90
19483;DHT22;9882;51.166;6.992;2024-03-23T02:50:21;8.60;99.90
19483;DHT22;9882;51.166;6.992;2024-03-23T02:52:48;8.40;99.90
19483;DHT22;9882;51.166;6.992;2024-03-23T02:55:16;8.80;99.90
19483;DHT22;9882;51.166;6.992;2024-03-23T02:57:45;8.10;99.90
19483;DHT22;9882;51.166;6.992;2024-03-23T03:00:13;7.70;99.90
19483;DHT22;9882;51.166;6.992;2024-03-23T03:02:40;8.10;99.90
19483;DHT22;9882;51.166;6.992;2024-03-23T03:05:08;7.90;99.90
19483;DHT22;9882;51.166;6.992;2024-03-23T03:07:35;8.50;99.90
19483;DHT22;9882;51.166;6.992;2024-03-23T03:10:06;8.40;99.90
19483;DHT22;9882;51.166;6.992;2024-03-23T03:12:35;8.30;99.90
19483;DHT22;9882;51.166;6.992;2024-03-23T03:15:06;8.60;99.90
19483;DHT22;9882;51.166;6.992;2024-03-23T03:17:34;8.60;99.90
19483;DHT22;9882;51.166;6.992;2024-03-23T03:20:03;7.80;99.90
19483;DHT22;9882;51.166;6.992;2024-03-23T03:22:31;7.20;99.90
19483;DHT22;9882;51.166;6.992;2024-03-23T03:25:00;7.90;99.90
19483;DHT22;9882;51.166;6.992;2024-03-23T03:27:27;8.40;99.90
19483;DHT22;9882;51.166;6.992;2024-03-23T03:29:55;8.90;99.90
19483;DHT22;9882;51.166;6.992;2024-03-23T03:32:23;8.90;99.90
19483;DHT22;9882;51.166;6.992;2024-03-23T03:34:51;8.90;99.90
19483;DHT22;9882;51.166;6.992;2024-03-23T03:37:19;9.00;99.90
19483;DHT22;9882;51.166;6.992;2024-03-23T03:39:47;8.50;99.90
19483;DHT22;9882;51.166;6.992;2024-03-23T03:42:14;9.00;99.90
19483;DHT22;9882;51.166;6.992;2024-03-23T03:44:42;9.10;99.90
19483;DHT22;9882;51.166;6.992;2024-03-23T03:47:09;9.20;99.90
19483;DHT22;9882;51.166;6.992;2024-03-23T03:49:38;8.70;99.90
19483;DHT22;9882;51.166;6.992;2024-03-23T03:52:08;8.70;99.90
19483;DHT22;9882;51.166;6.992;2024-03-23T03:54:36;8.80;99.90
19483;DHT22;9882;51.166;6.992;2024-03-23T03:57:04;8.60;99.90
19483;DHT22;9882;51.166;6.992;2024-03-23T03:59:32;8.20;99.90
19483;DHT22;9882;51.166;6.992;2024-03-23T04:01:58;8.70;99.90
19483;DHT22;9882;51.166;6.992;2024-03-23T04:04:27;8.60;99.90
19483;DHT22;9882;51.166;6.992;2024-03-23T04:07:00;8.60;99.90
19483;DHT22;9882;51.166;6.992;2024-03-23T04:09:28;8.70;99.90
19483;DHT22;9882;51.166;6.992;2024-03-23T04:11:56;8.80;99.90
19483;DHT22;9882;51.166;6.992;2024-03-23T04:14:24;8.90;99.90
19483;DHT22;9882;51.166;6.992;2024-03-23T04:16:51;9.00;99.90
19483;DHT22;9882;51.166;6.992;2024-03-23T04:19:19;8.80;99.90
19483;DHT22;9882;51.166;6.992;2024-03-23T04:21:46;8.80;99.90
19483;DHT22;9882;51.166;6.992;2024-03-23T04:24:16;8.80;99.90
19483;DHT22;9882;51.166;6.992;2024-03-23T04:26:45;8.80;99.90
19483;DHT22;9882;51.166;6.992;2024-03-23T04:29:13;8.90;99.90
19483;DHT22;9882;51.166;6.992;2024-03-23T04:31:40;9.00;99.90
19483;DHT22;9882;51.166;6.992;2024-03-23T04:34:08;8.80;99.90
19483;DHT22;9882;51.166;6.992;2024-03-23T04:36:35;8.90;99.90
19483;DHT22;9882;51.166;6.992;2024-03-23T04:39:03;8.90;99.90
19483;DHT22;9882;51.166;6.992;2024-03-23T04:41:33;9.00;99.90
19483;DHT22;9882;51.166;6.992;2024-03-23T04:44:01;8.80;99.90
19483;DHT22;9882;51.166;6.992;2024-03-23T04:46:29;8.90;99.90
19483;DHT22;9882;51.166;6.992;2024-03-23T04:48:58;8.90;99.90
19483;DHT22;9882;51.166;6.992;2024-03-23T04:51:26;8.70;99.90
19483;DHT22;9882;51.166;6.992;2024-03-23T04:53:54;8.10;99.90
19483;DHT22;9882;51.166;6.992;2024-03-23T04:56:22;7.70;99.90
19483;DHT22;9882;51.166;6.992;2024-03-23T04:58:51;7.60;99.90
19483;DHT22;9882;51.166;6.992;2024-03-23T05:01:19;7.70;99.90
19483;DHT22;9882;51.166;6.992;2024-03-23T05:03:46;7.70;99.90
19483;DHT22;9882;51.166;6.992;2024-03-23T05:06:16;8.10;99.90
19483;DHT22;9882;51.166;6.992;2024-03-23T05:08:43;8.30;99.90
19483;DHT22;9882;51.166;6.992;2024-03-23T05:11:11;8.20;99.90
19483;DHT22;9882;51.166;6.992;2024-03-23T05:13:38;8.50;99.90
19483;DHT22;9882;51.166;6.992;2024-03-23T05:16:07;7.90;99.90
19483;DHT22;9882;51.166;6.992;2024-03-23T05:18:35;7.30;99.90
19483;DHT22;9882;51.166;6.992;2024-03-23T05:21:03;7.30;99.90
19483;DHT22;9882;51.166;6.992;2024-03-23T05:23:31;7.80;99.90
19483;DHT22;9882;51.166;6.992;2024-03-23T05:25:59;8.10;99.90
19483;DHT22;9882;51.166;6.992;2024-03-23T05:28:26;8.20;99.90
19483;DHT22;9882;51.166;6.992;2024-03-23T05:30:54;7.30;99.90
19483;DHT22;9882;51.166;6.992;2024-03-23T05:33:22;8.00;99.90
19483;DHT22;9882;51.166;6.992;2024-03-23T05:35:57;7.60;99.90
19483;DHT22;9882;51.166;6.992;2024-03-23T05:38:24;7.50;99.90
19483;DHT22;9882;51.166;6.992;2024-03-23T05:40:55;7.40;99.90
19483;DHT22;9882;51.166;6.992;2024-03-23T05:43:22;7.40;99.90
19483;DHT22;9882;51.166;6.992;2024-03-23T05:45:54;6.90;99.90
19483;DHT22;9882;51.166;6.992;2024-03-23T05:48:23;6.60;99.90
19483;DHT22;9882;51.166;6.992;2024-03-23T05:50:51;6.80;99.90
19483;DHT22;9882;51.166;6.992;2024-03-23T05:53:19;6.40;99.90
19483;DHT22;9882;51.166;6.992;2024-03-23T05:55:48;6.60;99.90
19483;DHT22;9882;51.166;6.992;2024-03-23T05:58:15;7.00;99.90
19483;DHT22;9882;51.166;6.992;2024-03-23T06:00:43;7.40;99.90
19483;DHT22;9882;51.166;6.992;2024-03-23T06:03:11;7.30;99.90
19483;DHT22;9882;51.166;6.992;2024-03-23T06:05:41;7.80;99.90
19483;DHT22;9882;51.166;6.992;2024-03-23T06:08:09;7.70;99.90
19483;DHT22;9882;51.166;6.992;2024-03-23T06:10:37;7.70;99.90
19483;DHT22;9882;51.166;6.992;2024-03-23T06:13:04;7.00;99.90
19483;DHT22;9882;51.166;6.992;2024-03-23T06:15:33;7.20;99.90
19483;DHT22;9882;51.166;6.992;2024-03-23T06:18:04;7.10;99.90
19483;DHT22;9882;51.166;6.992;2024-03-23T06:20:34;7.10;99.90
19483;DHT22;9882;51.166;6.992;2024-03-23T06:23:02;7.10;99.90
19483;DHT22;9882;51.166;6.992;2024-03-23T06:25:31;7.10;99.90
19483;DHT22;9882;51.166;6.992;2024-03-23T06:27:57;7.50;99.90
19483;DHT22;9882;51.166;6.992;2024-03-23T06:30:26;7.80;99.90
19483;DHT22;9882;51.166;6.992;2024-03-23T06:32:53;7.50;99.90
19483;DHT22;9882;51.166;6.992;2024-03-23T06:35:21;7.00;99.90
19483;DHT22;9882;51.166;6.992;2024-03-23T06:37:48;7.30;99.90
19483;DHT22;9882;51.166;6.992;2024-03-23T06:40:18;7.20;99.90
19483;DHT22;9882;51.166;6.992;2024-03-23T06:42:45;7.20;99.90
19483;DHT22;9882;51.166;6.992;2024-03-23T06:45:13;6.90;99.90
19483;DHT22;9882;51.166;6.992;2024-03-23T06:47:40;6.90;99.90
19483;DHT22;9882;51.166;6.992;2024-03-23T06:50:11;7.10;99.90
19483;DHT22;9882;51.166;6.992;2024-03-23T06:52:38;6.90;99.90
19483;DHT22;9882;51.166;6.992;2024-03-23T06:55:07;7.00;99.90
19483;DHT22;9882;51.166;6.992;2024-03-23T06:57:36;6.80;99.90
19483;DHT22;9882;51.166;6.992;2024-03-23T07:00:05;6.80;99.90
19483;DHT22;9882;51.166;6.992;2024-03-23T07:02:36;6.70;99.90
19483;DHT22;9882;51.166;6.992;2024-03-23T07:05:05;7.00;99.90
19483;DHT22;9882;51.166;6.992;2024-03-23T07:07:33;6.90;99.90
19483;DHT22;9882;51.166;6.992;2024-03-23T07:10:04;7.10;99.90
19483;DHT22;9882;51.166;6.992;2024-03-23T07:12:31;6.80;99.90
19483;DHT22;9882;51.166;6.992;2024-03-23T07:15:01;6.80;99.90
19483;DHT22;9882;51.166;6.992;2024-03-23T07:17:28;7.00;99.90
19483;DHT22;9882;51.166;6.992;2024-03-23T07:19:56;7.10;99.90
19483;DHT22;9882;51.166;6.992;2024-03-23T07:22:23;7.30;99.90
19483;DHT22;9882;51.166;6.992;2024-03-23T07:24:51;7.20;99.90
19483;DHT22;9882;51.166;6.992;2024-03-23T07:27:18;7.20;99.90
19483;DHT22;9882;51.166;6.992;2024-03-23T07:29:46;7.00;99.90
19483;DHT22;9882;51.166;6.992;2024-03-23T07:32:15;7.10;99.90
19483;DHT22;9882;51.166;6.992;2024-03-23T07:34:43;7.20;99.90
19483;DHT22;9882;51.166;6.992;2024-03-23T07:37:10;7.10;99.90
19483;DHT22;9882;51.166;6.992;2024-03-23T07:39:39;7.20;99.90
19483;DHT22;9882;51.166;6.992;2024-03-23T07:42:07;7.60;99.90
19483;DHT22;9882;51.166;6.992;2024-03-23T07:44:35;7.50;99.90
19483;DHT22;9882;51.166;6.992;2024-03-23T07:47:02;7.60;99.90
19483;DHT22;9882;51.166;6.992;2024-03-23T07:49:34;7.60;99.90
19483;DHT22;9882;51.166;6.992;2024-03-23T07:52:01;7.60;99.90
19483;DHT22;9882;51.166;6.992;2024-03-23T07:54:29;7.60;99.90
19483;DHT22;9882;51.166;6.992;2024-03-23T07:56:57;7.60;99.90
19483;DHT22;9882;51.166;6.992;2024-03-23T07:59:25;7.70;99.90
19483;DHT22;9882;51.166;6.992;2024-03-23T08:01:52;7.70;99.90
19483;DHT22;9882;51.166;6.992;2024-03-23T08:04:20;7.70;99.90
19483;DHT22;9882;51.166;6.992;2024-03-23T08:06:48;7.90;99.90
19483;DHT22;9882;51.166;6.992;2024-03-23T08:09:16;7.80;99.90
19483;DHT22;9882;51.166;6.992;2024-03-23T08:11:44;8.00;99.90
19483;DHT22;9882;51.166;6.992;2024-03-23T08:14:13;7.70;99.90
19483;DHT22;9882;51.166;6.992;2024-03-23T08:16:40;7.80;99.90
19483;DHT22;9882;51.166;6.992;2024-03-23T08:19:08;7.40;99.90
19483;DHT22;9882;51.166;6.992;2024-03-23T08:21:35;7.50;99.90
19483;DHT22;9882;51.166;6.992;2024-03-23T08:24:05;7.60;99.90
19483;DHT22;9882;51.166;6.992;2024-03-23T08:26:32;7.60;99.90
19483;DHT22;9882;51.166;6.992;2024-03-23T08:29:00;7.70;99.90
19483;DHT22;9882;51.166;6.992;2024-03-23T08:31:27;7.90;99.90
19483;DHT22;9882;51.166;6.992;2024-03-23T08:33:55;8.00;99.90
19483;DHT22;9882;51.166;6.992;2024-03-23T08:36:22;8.00;99.90
19483;DHT22;9882;51.166;6.992;2024-03-23T08:38:50;8.00;99.90
19483;DHT22;9882;51.166;6.992;2024-03-23T08:41:21;8.00;99.90
19483;DHT22;9882;51.166;6.992;2024-03-23T08:43:49;7.90;99.90
19483;DHT22;9882;51.166;6.992;2024-03-23T08:46:16;7.80;99.90
19483;DHT22;9882;51.166;6.992;2024-03-23T08:48:45;7.90;99.90
19483;DHT22;9882;51.166;6.992;2024-03-23T08:51:13;7.90;99.90
19483;DHT22;9882;51.166;6.992;2024-03-23T08:53:42;7.80;99.90
19483;DHT22;9882;51.166;6.992;2024-03-23T08:56:10;7.70;99.90
19483;DHT22;9882;51.166;6.992;2024-03-23T08:58:39;7.50;99.90
19483;DHT22;9882;51.166;6.992;2024-03-23T09:01:08;7.70;99.90
19483;DHT22;9882;51.166;6.992;2024-03-23T09:03:37;7.70;99.90
19483;DHT22;9882;51.166;6.992;2024-03-23T09:06:07;8.00;99.90
19483;DHT22;9882;51.166;6.992;2024-03-23T09:08:35;8.10;99.90
19483;DHT22;9882;51.166;6.992;2024-03-23T09:11:06;8.00;99.90
19483;DHT22;9882;51.166;6.992;2024-03-23T09:13:35;8.20;99.90
19483;DHT22;9882;51.166;6.992;2024-03-23T09:16:05;7.80;99.90
19483;DHT22;9882;51.166;6.992;2024-03-23T09:18:34;7.80;99.90
19483;DHT22;9882;51.166;6.992;2024-03-23T09:21:02;7.90;99.90
19483;DHT22;9882;51.166;6.992;2024-03-23T09:23:30;7.90;99.90
19483;DHT22;9882;51.166;6.992;2024-03-23T09:25:57;7.60;99.90
19483;DHT22;9882;51.166;6.992;2024-03-23T09:28:27;7.70;99.90
19483;DHT22;9882;51.166;6.992;2024-03-23T09:31:06;7.90;99.90
19483;DHT22;9882;51.166;6.992;2024-03-23T09:33:37;8.10;99.90
19483;DHT22;9882;51.166;6.992;2024-03-23T09:36:04;8.30;99.90
19483;DHT22;9882;51.166;6.992;2024-03-23T09:38:33;8.20;99.90
19483;DHT22;9882;51.166;6.992;2024-03-23T09:41:06;8.30;99.90
19483;DHT22;9882;51.166;6.992;2024-03-23T09:43:34;8.20;99.90
19483;DHT22;9882;51.166;6.992;2024-03-23T09:46:04;8.40;99.90
19483;DHT22;9882;51.166;6.992;2024-03-23T09:48:32;8.30;99.90
19483;DHT22;9882;51.166;6.992;2024-03-23T09:50:59;8.60;99.90
19483;DHT22;9882;51.166;6.992;2024-03-23T09:53:27;8.40;99.90
19483;DHT22;9882;51.166;6.992;2024-03-23T09:55:55;8.50;99.90
19483;DHT22;9882;51.166;6.992;2024-03-23T09:58:23;8.50;99.90
19483;DHT22;9882;51.166;6.992;2024-03-23T10:00:50;8.40;99.90
19483;DHT22;9882;51.166;6.992;2024-03-23T10:03:20;8.30;99.90
19483;DHT22;9882;51.166;6.992;2024-03-23T10:05:47;8.40;99.90
19483;DHT22;9882;51.166;6.992;2024-03-23T10:08:29;8.40;99.90
19483;DHT22;9882;51.166;6.992;2024-03-23T10:10:56;8.60;99.90
19483;DHT22;9882;51.166;6.992;2024-03-23T10:13:24;8.80;99.90
19483;DHT22;9882;51.166;6.992;2024-03-23T10:15:56;9.00;99.90
19483;DHT22;9882;51.166;6.992;2024-03-23T10:18:26;8.90;99.90
19483;DHT22;9882;51.166;6.992;2024-03-23T10:21:07;8.90;99.90
19483;DHT22;9882;51.166;6.992;2024-03-23T10:23:38;8.80;99.90
19483;DHT22;9882;51.166;6.992;2024-03-23T10:26:14;9.00;99.90
19483;DHT22;9882;51.166;6.992;2024-03-23T10:28:52;9.10;99.90
19483;DHT22;9882;51.166;6.992;2024-03-23T10:31:19;8.80;99.90
19483;DHT22;9882;51.166;6.992;2024-03-23T10:33:49;9.00;99.90
19483;DHT22;9882;51.166;6.992;2024-03-23T10:36:17;9.10;99.90
19483;DHT22;9882;51.166;6.992;2024-03-23T10:38:50;9.30;99.90
19483;DHT22;9882;51.166;6.992;2024-03-23T10:41:17;9.20;99.90
19483;DHT22;9882;51.166;6.992;2024-03-23T10:43:46;9.20;99.90
19483;DHT22;9882;51.166;6.992;2024-03-23T10:46:13;9.00;99.90
19483;DHT22;9882;51.166;6.992;2024-03-23T10:48:42;8.90;99.90
19483;DHT22;9882;51.166;6.992;2024-03-23T10:51:12;8.70;99.90
19483;DHT22;9882;51.166;6.992;2024-03-23T10:53:43;7.90;99.90
19483;DHT22;9882;51.166;6.992;2024-03-23T10:56:12;7.20;99.90
19483;DHT22;9882;51.166;6.992;2024-03-23T10:58:43;7.00;99.90
19483;DHT22;9882;51.166;6.992;2024-03-23T11:01:11;7.00;99.90
19483;DHT22;9882;51.166;6.992;2024-03-23T11:03:44;7.00;99.90
19483;DHT22;9882;51.166;6.992;2024-03-23T11:06:34;6.80;99.90
19483;DHT22;9882;51.166;6.992;2024-03-23T11:09:02;6.70;99.90
19483;DHT22;9882;51.166;6.992;2024-03-23T11:11:29;6.70;99.90
19483;DHT22;9882;51.166;6.992;2024-03-23T11:13:59;6.50;99.90
19483;DHT22;9882;51.166;6.992;2024-03-23T11:16:27;7.10;99.90
19483;DHT22;9882;51.166;6.992;2024-03-23T11:19:33;7.10;99.90
19483;DHT22;9882;51.166;6.992;2024-03-23T11:22:04;6.70;99.90
19483;DHT22;9882;51.166;6.992;2024-03-23T11:24:33;6.30;99.90
19483;DHT22;9882;51.166;6.992;2024-03-23T11:26:59;5.80;99.90
19483;DHT22;9882;51.166;6.992;2024-03-23T11:29:30;6.00;99.90
19483;DHT22;9882;51.166;6.992;2024-03-23T11:31:57;5.90;99.90
19483;DHT22;9882;51.166;6.992;2024-03-23T11:34:27;6.60;99.90
19483;DHT22;9882;51.166;6.992;2024-03-23T11:37:04;6.20;99.90
19483;DHT22;9882;51.166;6.992;2024-03-23T11:39:34;6.30;99.90
19483;DHT22;9882;51.166;6.992;2024-03-23T11:42:01;6.30;99.90
19483;DHT22;9882;51.166;6.992;2024-03-23T11:44:29;6.30;99.90
19483;DHT22;9882;51.166;6.992;2024-03-23T11:47:07;6.90;99.90
19483;DHT22;9882;51.166;6.992;2024-03-23T11:49:36;6.70;99.90
19483;DHT22;9882;51.166;6.992;2024-03-23T11:52:10;6.90;99.90
19483;DHT22;9882;51.166;6.992;2024-03-23T11:54:41;6.80;99.90
19483;DHT22;9882;51.166;6.992;2024-03-23T11:57:09;7.00;99.90
19483;DHT22;9882;51.166;6.992;2024-03-23T11:59:39;7.10;99.90
19483;DHT22;9882;51.166;6.992;2024-03-23T12:02:07;7.90;99.90
19483;DHT22;9882;51.166;6.992;2024-03-23T12:04:35;7.70;99.90
19483;DHT22;9882;51.166;6.992;2024-03-23T12:07:11;7.80;99.90
19483;DHT22;9882;51.166;6.992;2024-03-23T12:09:40;7.90;99.90
19483;DHT22;9882;51.166;6.992;2024-03-23T12:12:13;8.30;99.90
19483;DHT22;9882;51.166;6.992;2024-03-23T12:14:43;7.40;99.90
19483;DHT22;9882;51.166;6.992;2024-03-23T12:17:12;6.50;99.90
19483;DHT22;9882;51.166;6.992;2024-03-23T12:19:42;6.00;99.90
19483;DHT22;9882;51.166;6.992;2024-03-23T12:22:10;5.60;99.90
19483;DHT22;9882;51.166;6.992;2024-03-23T12:24:39;5.30;99.90
19483;DHT22;9882;51.166;6.992;2024-03-23T12:27:12;4.90;99.90
19483;DHT22;9882;51.166;6.992;2024-03-23T12:29:41;5.10;99.90
19483;DHT22;9882;51.166;6.992;2024-03-23T12:32:10;6.00;99.90
19483;DHT22;9882;51.166;6.992;2024-03-23T12:34:38;6.10;99.90
19483;DHT22;9882;51.166;6.992;2024-03-23T12:37:52;6.20;99.90
19483;DHT22;9882;51.166;6.992;2024-03-23T12:40:22;5.60;99.90
19483;DHT22;9882;51.166;6.992;2024-03-23T12:42:49;6.40;99.90
19483;DHT22;9882;51.166;6.992;2024-03-23T12:45:18;6.20;99.90
19483;DHT22;9882;51.166;6.992;2024-03-23T12:47:45;6.30;99.90
19483;DHT22;9882;51.166;6.992;2024-03-23T12:50:13;6.00;99.90
19483;DHT22;9882;51.166;6.992;2024-03-23T12:52:43;6.30;99.90
19483;DHT22;9882;51.166;6.992;2024-03-23T12:55:14;6.50;99.90
19483;DHT22;9882;51.166;6.992;2024-03-23T12:57:41;6.40;99.90
19483;DHT22;9882;51.166;6.992;2024-03-23T13:00:10;7.00;99.90
19483;DHT22;9882;51.166;6.992;2024-03-23T13:02:38;6.60;99.90
19483;DHT22;9882;51.166;6.992;2024-03-23T13:05:08;6.50;99.90
19483;DHT22;9882;51.166;6.992;2024-03-23T13:07:35;6.40;99.90
19483;DHT22;9882;51.166;6.992;2024-03-23T13:10:05;6.90;99.90
19483;DHT22;9882;51.166;6.992;2024-03-23T13:12:34;7.00;99.90
19483;DHT22;9882;51.166;6.992;2024-03-23T13:15:02;7.40;99.90
19483;DHT22;9882;51.166;6.992;2024-03-23T13:17:31;7.20;99.90
19483;DHT22;9882;51.166;6.992;2024-03-23T13:19:59;7.40;99.90
19483;DHT22;9882;51.166;6.992;2024-03-23T13:22:26;7.50;99.90
19483;DHT22;9882;51.166;6.992;2024-03-23T13:24:54;7.50;99.90
19483;DHT22;9882;51.166;6.992;2024-03-23T13:27:21;7.70;99.90
19483;DHT22;9882;51.166;6.992;2024-03-23T13:29:51;7.80;99.90
19483;DHT22;9882;51.166;6.992;2024-03-23T13:32:19;7.50;99.90
19483;DHT22;9882;51.166;6.992;2024-03-23T13:34:48;7.40;99.90
19483;DHT22;9882;51.166;6.992;2024-03-23T13:37:16;6.60;99.90
19483;DHT22;9882;51.166;6.992;2024-03-23T13:39:44;6.20;99.90
19483;DHT22;9882;51.166;6.992;2024-03-23T13:42:11;6.30;99.90
19483;DHT22;9882;51.166;6.992;2024-03-23T13:44:39;6.40;99.90
19483;DHT22;9882;51.166;6.992;2024-03-23T13:47:07;7.00;99.90
19483;DHT22;9882;51.166;6.992;2024-03-23T13:49:34;7.30;99.90
19483;DHT22;9882;51.166;6.992;2024-03-23T13:52:01;7.50;99.90
19483;DHT22;9882;51.166;6.992;2024-03-23T13:54:29;7.60;99.90
19483;DHT22;9882;51.166;6.992;2024-03-23T13:56:56;7.50;99.90
19483;DHT22;9882;51.166;6.992;2024-03-23T13:59:24;7.50;99.90
19483;DHT22;9882;51.166;6.992;2024-03-23T14:01:51;7.30;99.90
19483;DHT22;9882;51.166;6.992;2024-03-23T14:04:20;7.10;99.90
19483;DHT22;9882;51.166;6.992;2024-03-23T14:06:46;7.20;99.90
19483;DHT22;9882;51.166;6.992;2024-03-23T14:09:15;7.10;99.90
19483;DHT22;9882;51.166;6.992;2024-03-23T14:11:47;6.90;99.90
19483;DHT22;9882;51.166;6.992;2024-03-23T14:14:14;6.80;99.90
19483;DHT22;9882;51.166;6.992;2024-03-23T14:16:43;6.90;99.90
19483;DHT22;9882;51.166;6.992;2024-03-23T14:19:10;7.20;99.90
19483;DHT22;9882;51.166;6.992;2024-03-23T14:21:38;7.40;99.90
19483;DHT22;9882;51.166;6.992;2024-03-23T14:24:07;7.60;99.90
19483;DHT22;9882;51.166;6.992;2024-03-23T14:26:35;8.60;99.90
19483;DHT22;9882;51.166;6.992;2024-03-23T14:29:03;9.00;99.90
19483;DHT22;9882;51.166;6.992;2024-03-23T14:31:30;9.50;99.90
19483;DHT22;9882;51.166;6.992;2024-03-23T14:33:58;9.90;99.90
19483;DHT22;9882;51.166;6.992;2024-03-23T14:36:26;10.00;99.90
19483;DHT22;9882;51.166;6.992;2024-03-23T14:38:55;9.90;99.90
19483;DHT22;9882;51.166;6.992;2024-03-23T14:41:22;9.20;99.90
19483;DHT22;9882;51.166;6.992;2024-03-23T14:43:50;8.80;99.90
19483;DHT22;9882;51.166;6.992;2024-03-23T14:46:19;8.20;99.90
19483;DHT22;9882;51.166;6.992;2024-03-23T14:48:47;7.90;99.90
19483;DHT22;9882;51.166;6.992;2024-03-23T14:51:14;7.80;99.90
19483;DHT22;9882;51.166;6.992;2024-03-23T14:53:45;7.70;99.90
19483;DHT22;9882;51.166;6.992;2024-03-23T14:56:13;7.40;99.90
19483;DHT22;9882;51.166;6.992;2024-03-23T14:58:42;7.00;99.90
19483;DHT22;9882;51.166;6.992;2024-03-23T15:01:11;6.80;99.90
19483;DHT22;9882;51.166;6.992;2024-03-23T15:03:38;7.10;99.90
19483;DHT22;9882;51.166;6.992;2024-03-23T15:06:07;7.10;99.90
19483;DHT22;9882;51.166;6.992;2024-03-23T15:08:35;7.10;99.90
19483;DHT22;9882;51.166;6.992;2024-03-23T15:11:04;7.00;99.90
19483;DHT22;9882;51.166;6.992;2024-03-23T15:13:33;6.80;99.90
19483;DHT22;9882;51.166;6.992;2024-03-23T15:16:00;7.30;99.90
19483;DHT22;9882;51.166;6.992;2024-03-23T15:18:30;7.30;99.90
19483;DHT22;9882;51.166;6.992;2024-03-23T15:20:58;7.40;99.90
19483;DHT22;9882;51.166;6.992;2024-03-23T15:23:29;7.60;99.90
19483;DHT22;9882;51.166;6.992;2024-03-23T15:25:57;8.20;99.90
19483;DHT22;9882;51.166;6.992;2024-03-23T15:28:24;8.20;99.90
19483;DHT22;9882;51.166;6.992;2024-03-23T15:30:59;8.30;99.90
19483;DHT22;9882;51.166;6.992;2024-03-23T15:33:25;8.00;99.90
19483;DHT22;9882;51.166;6.992;2024-03-23T15:35:53;8.20;99.90
19483;DHT22;9882;51.166;6.992;2024-03-23T15:38:20;8.30;99.90
19483;DHT22;9882;51.166;6.992;2024-03-23T15:40:51;9.20;99.90
19483;DHT22;9882;51.166;6.992;2024-03-23T15:43:17;9.70;99.90
19483;DHT22;9882;51.166;6.992;2024-03-23T15:45:55;10.00;99.90
19483;DHT22;9882;51.166;6.992;2024-03-23T15:48:22;10.00;99.90
19483;DHT22;9882;51.166;6.992;2024-03-23T15:50:51;10.60;99.90
19483;DHT22;9882;51.166;6.992;2024-03-23T15:53:18;10.30;99.90
19483;DHT22;9882;51.166;6.992;2024-03-23T15:55:53;10.40;99.90
19483;DHT22;9882;51.166;6.992;2024-03-23T15:58:20;10.50;99.90
19483;DHT22;9882;51.166;6.992;2024-03-23T16:00:56;10.30;99.90
19483;DHT22;9882;51.166;6.992;2024-03-23T16:03:24;9.70;99.90
19483;DHT22;9882;51.166;6.992;2024-03-23T16:05:53;9.60;99.90
19483;DHT22;9882;51.166;6.992;2024-03-23T16:08:20;9.00;99.90
19483;DHT22;9882;51.166;6.992;2024-03-23T16:10:48;9.20;99.90
19483;DHT22;9882;51.166;6.992;2024-03-23T16:13:16;8.50;99.90
19483;DHT22;9882;51.166;6.992;2024-03-23T16:15:44;8.70;99.90
19483;DHT22;9882;51.166;6.992;2024-03-23T16:18:12;8.50;99.90
19483;DHT22;9882;51.166;6.992;2024-03-23T16:20:40;8.30;99.90
19483;DHT22;9882;51.166;6.992;2024-03-23T16:23:06;8.20;99.90
19483;DHT22;9882;51.166;6.992;2024-03-23T16:25:34;8.10;99.90
19483;DHT22;9882;51.166;6.992;2024-03-23T16:28:00;8.20;99.90
19483;DHT22;9882;51.166;6.992;2024-03-23T16:30:28;8.50;99.90
19483;DHT22;9882;51.166;6.992;2024-03-23T16:32:55;8.20;99.90
19483;DHT22;9882;51.166;6.992;2024-03-23T16:35:23;8.50;99.90
19483;DHT22;9882;51.166;6.992;2024-03-23T16:37:51;8.70;99.90
19483;DHT22;9882;51.166;6.992;2024-03-23T16:40:18;9.10;99.90
19483;DHT22;9882;51.166;6.992;2024-03-23T16:42:45;9.10;99.90
19483;DHT22;9882;51.166;6.992;2024-03-23T16:45:13;8.80;99.90
19483;DHT22;9882;51.166;6.992;2024-03-23T16:47:39;8.50;99.90
19483;DHT22;9882;51.166;6.992;2024-03-23T16:50:07;8.60;99.90
19483;DHT22;9882;51.166;6.992;2024-03-23T16:52:36;9.00;99.90
19483;DHT22;9882;51.166;6.992;2024-03-23T16:55:06;9.00;99.90
19483;DHT22;9882;51.166;6.992;2024-03-23T16:57:33;8.80;99.90
19483;DHT22;9882;51.166;6.992;2024-03-23T17:00:00;8.30;99.90
19483;DHT22;9882;51.166;6.992;2024-03-23T17:02:27;8.70;99.90
19483;DHT22;9882;51.166;6.992;2024-03-23T17:04:55;9.20;99.90